Terminal Aerodrome Forecast
Issued by NWS

Current Version | Previous Version | Graphics & Text | Print | Product List | Glossary On
Versions: 1 2 3 4 5 6 7 8 9 10 11 12 13 14 15
534
FTUS41 KPBZ 221739
TAFHLG
TAF
KHLG 221739Z 2218/2318 35012KT P6SM SCT025 OVC100
     FM222100 01010KT P6SM BKN100
     FM230400 02006KT P6SM BKN250
     FM231300 06006KT P6SM SCT250=

USA.gov is the U.S. government's official web portal to all federal, state and local government web resources and services.